Aviation Digital Data Service (ADDS)

Output produced by METARs form (0213 UTC 19 February 2019)
found at http://www.aviationweather.gov/metar/data/
 
HSOB 182200Z 35012KT CAVOK 19/M04 Q1017
TAF HSOB 182300Z 1900/2006 36012G22KT CAVOK 
     TEMPO 1905/1909 6000
       
TAF HSKA 182300Z 1900/2006 36007KT CAVOK
       
HSSS 190200Z 36012KT CAVOK 16/M09 Q1016 NOSIG
HSSS 182300Z 1900/2006 36008G18KT CAVOK 
     PROB30 
     TEMPO 1905/1909 6000
       
HSPN 182200Z 36010KT 9999 FEW030 21/14 Q1016
TAF HSPN 182300Z 1900/2006 32008KT 9999 FEW030 
     TEMPO 1905/1909 6000 
     BECMG 1910/1912 04012G22KT